createdAt,value
2022-08-10T00:00:28.042Z,0.00
2022-08-10T00:01:28.016Z,0.00
2022-08-10T00:02:27.975Z,0.00
2022-08-10T00:03:27.964Z,0.00
2022-08-10T00:04:27.950Z,0.00
2022-08-10T00:05:27.939Z,0.00
2022-08-10T00:06:27.929Z,0.00
2022-08-10T00:07:27.917Z,0.00
2022-08-10T00:08:27.905Z,0.00
2022-08-10T00:09:27.897Z,0.00
2022-08-10T00:10:27.883Z,0.00
2022-08-10T00:11:27.871Z,0.00
2022-08-10T00:12:53.700Z,0.00
2022-08-10T00:13:27.849Z,0.00
2022-08-10T00:14:27.843Z,0.00
2022-08-10T00:15:51.870Z,0.00
2022-08-10T00:16:28.843Z,0.00
2022-08-10T00:17:27.805Z,0.00
2022-08-10T00:18:35.040Z,0.00
2022-08-10T00:19:27.784Z,0.00
2022-08-10T00:20:28.831Z,0.00
2022-08-10T00:21:27.760Z,0.00
2022-08-10T00:22:27.812Z,0.00
2022-08-10T00:23:27.739Z,0.00
2022-08-10T00:24:27.730Z,0.00
2022-08-10T00:25:27.728Z,0.00
2022-08-10T00:27:52.278Z,0.00
2022-08-10T00:27:58.568Z,0.00
2022-08-10T00:28:28.851Z,0.00
2022-08-10T00:29:27.669Z,0.00
2022-08-10T00:30:27.658Z,0.00
2022-08-10T00:31:27.647Z,0.00
2022-08-10T00:32:27.788Z,0.00
2022-08-10T00:33:27.626Z,0.00
2022-08-10T00:34:27.618Z,0.00
2022-08-10T00:35:27.601Z,0.00
2022-08-10T00:36:27.591Z,0.00
2022-08-10T00:37:27.578Z,0.00
2022-08-10T00:38:27.569Z,0.00
2022-08-10T00:39:27.621Z,0.00
2022-08-10T00:40:37.573Z,0.00
2022-08-10T00:41:28.606Z,0.00
2022-08-10T00:42:27.536Z,0.00
2022-08-10T00:43:27.508Z,0.00
2022-08-10T00:44:27.502Z,0.00
2022-08-10T00:45:27.485Z,0.00
2022-08-10T00:46:27.474Z,0.00
2022-08-10T00:47:36.695Z,0.00
2022-08-10T00:48:28.476Z,0.00
2022-08-10T00:49:27.439Z,0.00
2022-08-10T00:50:27.428Z,0.00
2022-08-10T00:51:40.434Z,0.00
2022-08-10T00:52:27.405Z,0.00
2022-08-10T00:53:27.392Z,0.00
2022-08-10T00:54:27.391Z,0.00
2022-08-10T00:55:27.372Z,0.00
2022-08-10T00:57:07.848Z,0.00
2022-08-10T00:57:28.370Z,0.00
2022-08-10T00:58:27.338Z,0.00
2022-08-10T00:59:27.326Z,0.00
2022-08-10T01:00:27.313Z,0.00
2022-08-10T01:02:09.108Z,0.00
2022-08-10T01:02:27.497Z,0.00
2022-08-10T01:04:42.056Z,0.00
2022-08-10T01:04:57.608Z,0.00
2022-08-10T01:05:28.281Z,0.00
2022-08-10T01:06:27.243Z,0.00
2022-08-10T01:07:27.231Z,0.00
2022-08-10T01:08:27.226Z,0.00
2022-08-10T01:09:27.210Z,0.00
2022-08-10T01:10:27.211Z,0.00
2022-08-10T01:12:28.689Z,0.00
2022-08-10T01:12:40.492Z,0.00
2022-08-10T01:13:28.190Z,0.00
2022-08-10T01:14:27.157Z,0.00
2022-08-10T01:15:27.141Z,0.00
2022-08-10T01:16:27.135Z,0.00
2022-08-10T01:17:49.832Z,0.00
2022-08-10T01:18:28.133Z,0.00
2022-08-10T01:19:27.098Z,0.00
2022-08-10T01:20:31.051Z,0.00
2022-08-10T01:21:27.078Z,0.00
2022-08-10T01:22:27.136Z,0.00
2022-08-10T01:23:27.053Z,0.00
2022-08-10T01:24:27.041Z,0.00
2022-08-10T01:25:27.029Z,0.00
2022-08-10T01:26:31.112Z,0.00
2022-08-10T01:27:27.433Z,0.00
2022-08-10T01:28:26.999Z,0.00
2022-08-10T01:29:26.986Z,0.00
2022-08-10T01:30:26.976Z,0.00
2022-08-10T01:31:26.966Z,0.00
2022-08-10T01:32:27.092Z,0.00
2022-08-10T01:33:31.796Z,0.00
2022-08-10T01:34:27.953Z,0.00
2022-08-10T01:35:26.920Z,0.00
2022-08-10T01:36:32.493Z,0.00
2022-08-10T01:37:26.895Z,0.00
2022-08-10T01:38:26.885Z,0.00
2022-08-10T01:39:26.984Z,0.00
2022-08-10T01:40:26.864Z,0.00
2022-08-10T01:41:26.854Z,0.00
2022-08-10T01:42:26.954Z,0.00
2022-08-10T01:43:26.829Z,0.00
2022-08-10T01:44:26.822Z,0.00
2022-08-10T01:45:26.809Z,0.00
2022-08-10T01:46:26.851Z,0.00
2022-08-10T01:47:27.402Z,0.00
2022-08-10T01:48:26.780Z,0.00
2022-08-10T01:49:26.766Z,0.00
2022-08-10T01:50:26.758Z,0.00
2022-08-10T01:51:26.792Z,0.00
2022-08-10T01:52:26.740Z,0.00
2022-08-10T01:53:26.723Z,0.00
2022-08-10T01:54:26.713Z,0.00
2022-08-10T01:55:26.701Z,0.00
2022-08-10T01:56:26.940Z,0.00
2022-08-10T01:57:26.679Z,0.00
2022-08-10T01:58:26.673Z,0.00
2022-08-10T01:59:26.667Z,0.00
2022-08-10T02:00:26.648Z,0.00
2022-08-10T02:01:26.885Z,0.00
2022-08-10T02:02:26.670Z,0.00
2022-08-10T02:03:26.614Z,0.00
2022-08-10T02:04:26.603Z,0.00
2022-08-10T02:05:26.590Z,0.00
2022-08-10T02:06:26.579Z,0.00
2022-08-10T02:07:26.573Z,0.00
2022-08-10T02:08:26.560Z,0.00
2022-08-10T02:09:26.546Z,0.00
2022-08-10T02:10:26.536Z,0.00
2022-08-10T02:11:26.524Z,0.00
2022-08-10T02:12:26.558Z,0.00
2022-08-10T02:13:26.504Z,0.00
2022-08-10T02:14:33.224Z,0.00
2022-08-10T02:15:27.506Z,0.00
2022-08-10T02:16:26.471Z,0.00
2022-08-10T02:17:59.593Z,0.00
2022-08-10T02:18:26.451Z,0.00
2022-08-10T02:19:26.436Z,0.00
2022-08-10T02:20:26.424Z,0.00
2022-08-10T02:21:26.414Z,0.00
2022-08-10T02:22:36.446Z,0.00
2022-08-10T02:23:27.417Z,0.00
2022-08-10T02:24:26.382Z,0.00
2022-08-10T02:25:41.774Z,0.00
2022-08-10T02:26:27.381Z,0.00
2022-08-10T02:27:26.345Z,0.00
2022-08-10T02:28:30.227Z,0.00
2022-08-10T02:29:26.322Z,0.00
2022-08-10T02:30:26.313Z,0.00
2022-08-10T02:31:26.302Z,0.00
2022-08-10T02:32:38.146Z,0.00
2022-08-10T02:33:27.304Z,0.00
2022-08-10T02:34:26.266Z,0.00
2022-08-10T02:35:26.253Z,0.00
2022-08-10T02:36:26.243Z,0.00
2022-08-10T02:37:26.240Z,0.00
2022-08-10T02:38:58.125Z,0.00
2022-08-10T02:39:27.291Z,0.00
2022-08-10T02:45:02.364Z,0.00
2022-08-10T02:45:13.864Z,0.00
2022-08-10T02:45:21.967Z,0.00
2022-08-10T02:45:22.799Z,0.00
2022-08-10T02:45:25.719Z,0.00
2022-08-10T02:45:31.137Z,0.00
2022-08-10T02:46:26.347Z,0.00
2022-08-10T02:47:26.119Z,0.00
2022-08-10T02:48:26.109Z,0.00
2022-08-10T02:49:26.095Z,0.00
2022-08-10T02:50:26.087Z,0.00
2022-08-10T02:52:06.695Z,0.00
2022-08-10T02:52:27.133Z,0.00
2022-08-10T02:53:54.976Z,0.00
2022-08-10T02:54:26.041Z,0.00
2022-08-10T02:55:27.145Z,0.00
2022-08-10T02:56:26.021Z,0.00
2022-08-10T02:57:26.005Z,0.00
2022-08-10T02:58:25.996Z,0.00
2022-08-10T02:59:25.982Z,0.00
2022-08-10T03:00:25.973Z,0.00
2022-08-10T03:01:26.060Z,0.00
2022-08-10T03:02:25.985Z,0.00
2022-08-10T03:03:25.938Z,0.00
2022-08-10T03:04:55.887Z,0.00
2022-08-10T03:05:25.915Z,0.00
2022-08-10T03:06:25.910Z,0.00
2022-08-10T03:07:43.320Z,0.00
2022-08-10T03:08:25.881Z,0.00
2022-08-10T03:09:25.868Z,0.00
2022-08-10T03:10:25.858Z,0.00
2022-08-10T03:12:35.347Z,0.00
2022-08-10T03:12:38.476Z,0.00
2022-08-10T03:13:25.825Z,0.00
2022-08-10T03:14:25.817Z,4.00
2022-08-10T03:15:25.803Z,4.00
2022-08-10T03:16:25.792Z,0.00
2022-08-10T03:17:25.780Z,0.00
2022-08-10T03:18:25.770Z,4.00
2022-08-10T03:20:35.560Z,4.00
2022-08-10T03:20:38.024Z,4.00
2022-08-10T03:21:26.760Z,4.00
2022-08-10T03:22:25.724Z,4.00
2022-08-10T03:23:25.713Z,4.00
2022-08-10T03:24:33.536Z,8.00
2022-08-10T03:25:25.688Z,8.00
2022-08-10T03:26:25.683Z,12.00
2022-08-10T03:27:25.668Z,12.00
2022-08-10T03:28:25.657Z,12.00
2022-08-10T03:29:25.643Z,16.00
2022-08-10T03:30:32.796Z,16.00
2022-08-10T03:31:25.620Z,16.00
2022-08-10T03:32:25.636Z,20.00
2022-08-10T03:33:25.605Z,24.00
2022-08-10T03:34:33.320Z,32.00
2022-08-10T03:35:25.577Z,32.00
2022-08-10T03:36:43.020Z,40.00
2022-08-10T03:37:25.553Z,44.00
2022-08-10T03:38:25.548Z,48.00
2022-08-10T03:39:25.573Z,60.00
2022-08-10T03:40:25.525Z,68.00
2022-08-10T03:41:25.509Z,80.00
2022-08-10T03:42:25.499Z,84.00
2022-08-10T03:43:25.485Z,96.00
2022-08-10T03:44:25.475Z,108.00
2022-08-10T03:45:25.462Z,124.00
2022-08-10T03:46:25.453Z,140.00
2022-08-10T03:47:25.439Z,152.00
2022-08-10T03:48:33.274Z,168.00
2022-08-10T03:49:25.420Z,188.00
2022-08-10T03:50:27.585Z,204.00
2022-08-10T03:51:25.395Z,224.00
2022-08-10T03:52:25.386Z,244.00
2022-08-10T03:54:02.423Z,268.00
2022-08-10T03:54:25.364Z,288.00
2022-08-10T03:56:27.315Z,316.00
2022-08-10T03:56:28.428Z,340.00
2022-08-10T03:57:25.331Z,368.00
2022-08-10T03:58:25.316Z,396.00
2022-08-10T03:59:25.303Z,428.00
2022-08-10T04:00:25.297Z,460.00
2022-08-10T04:02:43.940Z,532.00
2022-08-10T04:02:52.871Z,496.00
2022-08-10T04:03:25.263Z,572.00
2022-08-10T04:04:25.934Z,616.00
2022-08-10T04:05:25.237Z,664.00
2022-08-10T04:06:25.226Z,712.00
2022-08-10T04:07:25.377Z,760.00
2022-08-10T04:08:25.226Z,812.00
2022-08-10T04:09:42.966Z,872.00
2022-08-10T04:10:25.181Z,936.00
2022-08-10T04:11:25.169Z,1000.00
2022-08-10T04:12:25.161Z,1068.00
2022-08-10T04:13:25.146Z,1140.00
2022-08-10T04:14:38.012Z,1220.00
2022-08-10T04:15:26.156Z,1304.00
2022-08-10T04:16:25.116Z,1388.00
2022-08-10T04:17:56.728Z,1488.00
2022-08-10T04:18:26.116Z,1588.00
2022-08-10T04:19:25.079Z,1688.00
2022-08-10T04:20:25.069Z,1796.00
2022-08-10T04:21:25.062Z,1920.00
2022-08-10T04:22:25.049Z,2056.00
2022-08-10T04:23:25.034Z,2188.00
2022-08-10T04:24:29.813Z,2316.00
2022-08-10T04:25:25.014Z,2432.00
2022-08-10T04:26:25.156Z,2548.00
2022-08-10T04:27:24.992Z,2660.00
2022-08-10T04:28:24.977Z,2780.00
2022-08-10T04:29:24.966Z,2896.00
2022-08-10T04:30:24.955Z,3004.00
2022-08-10T04:31:24.945Z,3116.00
2022-08-10T04:32:24.934Z,3236.00
2022-08-10T04:33:24.924Z,3364.00
2022-08-10T04:34:24.911Z,3488.00
2022-08-10T04:35:24.901Z,3604.00
2022-08-10T04:36:24.889Z,3712.00
2022-08-10T04:37:24.879Z,3828.00
2022-08-10T04:38:24.866Z,3928.00
2022-08-10T04:39:24.887Z,4044.00
2022-08-10T04:40:30.294Z,4144.00
2022-08-10T04:41:25.868Z,4240.00
2022-08-10T04:42:24.848Z,4316.00
2022-08-10T04:43:24.812Z,4384.00
2022-08-10T04:44:24.798Z,4420.00
2022-08-10T04:45:24.789Z,4504.00
2022-08-10T04:46:55.347Z,4564.00
2022-08-10T04:47:57.295Z,4608.00
2022-08-10T04:48:41.308Z,4660.00
2022-08-10T04:49:52.172Z,4688.00
2022-08-10T04:50:25.772Z,4740.00
2022-08-10T04:51:24.727Z,4780.00
2022-08-10T04:52:25.285Z,4840.00
2022-08-10T04:53:24.705Z,4888.00
2022-08-10T04:54:24.689Z,4876.00
2022-08-10T04:55:24.682Z,4868.00
2022-08-10T04:56:32.065Z,4904.00
2022-08-10T04:57:25.705Z,4904.00
2022-08-10T04:58:24.648Z,4976.00
2022-08-10T04:59:24.649Z,5020.00
2022-08-10T05:00:24.623Z,4992.00
2022-08-10T05:01:25.117Z,4992.00
2022-08-10T05:02:31.291Z,5000.00
2022-08-10T05:03:24.593Z,5028.00
2022-08-10T05:04:36.624Z,5056.00
2022-08-10T05:05:25.594Z,5160.00
2022-08-10T05:06:24.563Z,5292.00
2022-08-10T05:07:24.549Z,5432.00
2022-08-10T05:08:24.537Z,5512.00
2022-08-10T05:09:24.539Z,5688.00
2022-08-10T05:10:24.511Z,5888.00
2022-08-10T05:11:24.512Z,6136.00
2022-08-10T05:12:24.489Z,6572.00
2022-08-10T05:13:24.480Z,7100.00
2022-08-10T05:14:24.464Z,7936.00
2022-08-10T05:15:24.471Z,10032.00
2022-08-10T05:16:32.056Z,11976.00
2022-08-10T05:17:25.458Z,12544.00
2022-08-10T05:18:24.419Z,12496.00
2022-08-10T05:20:03.031Z,11560.00
2022-08-10T05:20:25.422Z,9428.00
2022-08-10T05:21:59.855Z,8568.00
2022-08-10T05:22:25.399Z,9636.00
2022-08-10T05:23:24.416Z,10460.00
2022-08-10T05:24:24.354Z,10832.00
2022-08-10T05:25:24.344Z,10704.00
2022-08-10T05:26:24.330Z,11280.00
2022-08-10T05:27:24.326Z,11400.00
2022-08-10T05:28:24.310Z,11740.00
2022-08-10T05:29:25.321Z,11808.00
2022-08-10T05:30:24.285Z,11880.00
2022-08-10T05:31:24.310Z,12504.00
2022-08-10T05:32:24.264Z,12672.00
2022-08-10T05:33:24.256Z,13100.00
2022-08-10T05:34:24.243Z,13152.00
2022-08-10T05:35:24.301Z,10928.00
2022-08-10T05:36:24.221Z,9784.00
2022-08-10T05:38:10.951Z,10160.00
2022-08-10T05:38:24.202Z,12544.00
2022-08-10T05:39:28.833Z,13304.00
2022-08-10T05:40:24.175Z,12016.00
2022-08-10T05:41:24.163Z,11476.00
2022-08-10T05:42:24.150Z,11068.00
2022-08-10T05:43:24.173Z,12640.00
2022-08-10T05:44:24.131Z,14752.00
2022-08-10T05:45:24.123Z,13276.00
2022-08-10T05:46:24.106Z,11976.00
2022-08-10T05:47:24.148Z,11184.00
2022-08-10T05:48:55.067Z,10148.00
2022-08-10T05:49:24.075Z,10400.00
2022-08-10T05:50:24.065Z,10852.00
2022-08-10T05:51:24.051Z,10144.00
2022-08-10T05:52:24.041Z,10940.00
2022-08-10T05:54:02.530Z,9920.00
2022-08-10T05:54:24.017Z,8160.00
2022-08-10T05:55:24.020Z,8312.00
2022-08-10T05:56:24.006Z,6844.00
2022-08-10T05:57:24.008Z,6224.00
2022-08-10T05:58:23.995Z,6244.00
2022-08-10T06:00:35.831Z,6268.00
2022-08-10T06:00:37.305Z,6396.00
2022-08-10T06:01:24.008Z,7228.00
2022-08-10T06:02:34.099Z,7392.00
2022-08-10T06:03:24.351Z,8128.00
2022-08-10T06:04:23.908Z,8476.00
2022-08-10T06:05:23.896Z,7696.00
2022-08-10T06:06:24.959Z,9460.00
2022-08-10T06:07:23.876Z,12948.00
2022-08-10T06:08:23.861Z,14620.00
2022-08-10T06:09:23.852Z,13144.00
2022-08-10T06:10:32.631Z,7536.00
2022-08-10T06:12:23.762Z,6528.00
2022-08-10T06:12:28.589Z,6608.00
2022-08-10T06:13:30.694Z,6508.00
2022-08-10T06:14:28.560Z,6484.00
2022-08-10T06:15:51.929Z,8928.00
2022-08-10T06:16:23.774Z,10552.00
2022-08-10T06:17:23.764Z,9012.00
2022-08-10T06:18:23.754Z,7124.00
2022-08-10T06:19:23.747Z,6800.00
2022-08-10T06:20:23.729Z,7608.00
2022-08-10T06:21:23.717Z,7984.00
2022-08-10T06:22:23.708Z,6936.00
2022-08-10T06:23:23.783Z,6976.00
2022-08-10T06:24:25.274Z,6536.00
2022-08-10T06:26:11.669Z,6620.00
2022-08-10T06:26:24.685Z,6644.00
2022-08-10T06:27:34.568Z,6672.00
2022-08-10T06:28:24.691Z,7040.00
2022-08-10T06:29:23.628Z,6748.00
2022-08-10T06:30:23.615Z,8200.00
2022-08-10T06:31:23.604Z,7348.00
2022-08-10T06:32:23.592Z,6680.00
2022-08-10T06:33:23.583Z,7176.00
2022-08-10T06:34:23.685Z,6884.00
2022-08-10T06:35:23.560Z,7052.00
2022-08-10T06:36:23.564Z,7156.00
2022-08-10T06:37:23.534Z,7268.00
2022-08-10T06:38:23.523Z,7168.00
2022-08-10T06:39:33.392Z,7600.00
2022-08-10T06:40:24.664Z,9816.00
2022-08-10T06:41:23.488Z,15656.00
2022-08-10T06:42:24.503Z,19168.00
2022-08-10T06:43:23.467Z,10524.00
2022-08-10T06:44:23.456Z,7540.00
2022-08-10T06:45:23.499Z,7692.00
2022-08-10T06:46:23.436Z,8536.00
2022-08-10T06:47:23.518Z,11676.00
2022-08-10T06:48:23.412Z,13172.00
2022-08-10T06:49:23.402Z,10532.00
2022-08-10T06:50:34.833Z,11900.00
2022-08-10T06:51:24.467Z,13272.00
2022-08-10T06:52:23.369Z,11652.00
2022-08-10T06:53:23.360Z,7268.00
2022-08-10T06:54:23.343Z,10720.00
2022-08-10T06:55:23.391Z,13052.00
2022-08-10T06:56:36.861Z,11224.00
2022-08-10T06:57:24.336Z,11708.00
2022-08-10T06:58:26.589Z,15868.00
2022-08-10T06:59:23.296Z,22560.00
2022-08-10T07:00:23.365Z,25984.00
2022-08-10T07:01:24.556Z,21248.00
2022-08-10T07:02:23.257Z,21408.00
2022-08-10T07:03:23.249Z,25120.00
2022-08-10T07:04:32.395Z,31072.00
2022-08-10T07:05:23.275Z,26496.00
2022-08-10T07:06:23.461Z,25024.00
2022-08-10T07:07:23.296Z,20864.00
2022-08-10T07:08:23.348Z,31360.00
2022-08-10T07:09:23.339Z,36032.00
2022-08-10T07:10:23.452Z,39392.00
2022-08-10T07:11:23.347Z,43104.00
2022-08-10T07:12:23.147Z,42336.00
2022-08-10T07:14:15.824Z,40768.00
2022-08-10T07:14:23.172Z,46720.00
2022-08-10T07:15:23.154Z,47040.00
2022-08-10T07:16:23.100Z,47488.00
2022-08-10T07:17:23.110Z,45376.00
2022-08-10T07:18:23.126Z,46944.00
2022-08-10T07:19:23.069Z,49568.00
2022-08-10T07:20:23.059Z,51360.00
2022-08-10T07:21:23.047Z,52224.00
2022-08-10T07:23:01.650Z,51840.00
2022-08-10T07:23:55.698Z,54752.00
2022-08-10T07:24:24.149Z,50304.00
2022-08-10T07:25:23.007Z,54304.00
2022-08-10T07:26:22.992Z,54464.00
2022-08-10T07:27:22.983Z,51648.00
2022-08-10T07:28:22.977Z,52384.00
2022-08-10T07:29:26.622Z,54400.00
2022-08-10T07:30:22.950Z,57440.00
2022-08-10T07:31:31.144Z,58144.00
2022-08-10T07:32:22.929Z,59488.00
2022-08-10T07:33:22.918Z,59648.00
2022-08-10T07:34:29.341Z,59168.00
2022-08-10T07:35:24.014Z,57216.00
2022-08-10T07:36:22.884Z,58016.00
2022-08-10T07:37:22.874Z,60960.00
2022-08-10T07:38:22.862Z,59072.00
2022-08-10T07:40:03.789Z,56672.00
2022-08-10T07:40:23.175Z,63328.00
2022-08-10T07:41:22.833Z,62816.00
2022-08-10T07:42:22.818Z,62048.00
2022-08-10T07:43:22.809Z,61504.00
2022-08-10T07:44:22.798Z,62272.00
2022-08-10T07:45:22.793Z,62688.00
2022-08-10T07:46:22.778Z,65248.00
2022-08-10T07:47:53.207Z,63296.00
2022-08-10T07:48:23.786Z,62880.00
2022-08-10T07:49:22.753Z,66496.00
2022-08-10T07:50:22.792Z,65344.00
2022-08-10T07:51:22.726Z,65376.00
2022-08-10T07:52:22.716Z,68544.00
2022-08-10T07:53:22.707Z,66144.00
2022-08-10T07:54:22.689Z,66400.00
2022-08-10T07:56:05.099Z,64832.00
2022-08-10T07:56:45.819Z,64320.00
2022-08-10T07:57:30.749Z,65280.00
2022-08-10T07:58:23.676Z,63200.00
2022-08-10T07:59:22.641Z,63200.00
2022-08-10T08:00:22.644Z,64640.00
2022-08-10T08:01:22.745Z,62816.00
2022-08-10T08:02:22.609Z,71360.00
2022-08-10T08:03:22.599Z,69632.00
2022-08-10T08:04:22.587Z,70688.00
2022-08-10T08:05:57.467Z,66208.00
2022-08-10T08:06:23.620Z,72480.00
2022-08-10T08:07:22.572Z,64992.00
2022-08-10T08:08:22.583Z,64128.00
2022-08-10T08:09:22.543Z,67072.00
2022-08-10T08:10:22.526Z,64736.00
2022-08-10T08:11:26.129Z,64992.00
2022-08-10T08:12:22.508Z,66912.00
2022-08-10T08:13:22.494Z,69408.00
2022-08-10T08:14:22.485Z,65504.00
2022-08-10T08:16:20.612Z,66208.00
2022-08-10T08:16:22.517Z,61952.00
2022-08-10T08:17:22.453Z,62368.00
2022-08-10T08:18:25.353Z,65664.00
2022-08-10T08:19:35.437Z,70048.00
2022-08-10T08:20:23.446Z,69824.00
2022-08-10T08:24:06.836Z,73152.00
2022-08-10T08:24:07.661Z,69824.00
2022-08-10T08:24:07.807Z,77440.00
2022-08-10T08:24:33.110Z,77120.00
2022-08-10T08:25:23.392Z,74272.00
2022-08-10T08:26:22.357Z,75584.00
2022-08-10T08:27:22.349Z,70080.00
2022-08-10T08:28:22.338Z,70112.00
2022-08-10T08:29:22.529Z,72672.00
2022-08-10T08:30:27.805Z,73056.00
2022-08-10T08:31:22.315Z,70720.00
2022-08-10T08:32:22.315Z,74112.00
2022-08-10T08:33:42.182Z,74240.00
2022-08-10T08:34:23.299Z,66752.00
2022-08-10T08:35:22.269Z,66848.00
2022-08-10T08:36:22.259Z,68704.00
2022-08-10T08:38:31.054Z,71840.00
2022-08-10T08:38:33.086Z,71168.00
2022-08-10T08:39:22.296Z,68992.00
2022-08-10T08:40:22.256Z,67776.00
2022-08-10T08:41:22.210Z,75328.00
2022-08-10T08:42:22.200Z,67104.00
2022-08-10T08:43:22.189Z,76640.00
2022-08-10T08:44:22.195Z,79136.00
2022-08-10T08:45:22.185Z,74336.00
2022-08-10T08:46:22.170Z,72480.00
2022-08-10T08:48:03.313Z,78816.00
2022-08-10T08:48:22.140Z,81184.00
2022-08-10T08:50:04.559Z,78848.00
2022-08-10T08:50:23.405Z,83680.00
2022-08-10T08:52:09.539Z,78144.00
2022-08-10T08:52:23.121Z,81152.00
2022-08-10T08:53:22.668Z,76352.00
2022-08-10T08:54:22.108Z,72640.00
2022-08-10T08:56:04.420Z,77216.00
2022-08-10T08:56:23.090Z,80448.00
2022-08-10T08:57:23.689Z,73664.00
2022-08-10T08:58:22.038Z,78688.00
2022-08-10T08:59:22.025Z,74912.00
2022-08-10T09:00:22.015Z,77920.00
2022-08-10T09:01:22.083Z,85696.00
2022-08-10T09:02:21.994Z,82656.00
2022-08-10T09:03:26.238Z,86432.00
2022-08-10T09:04:23.001Z,84000.00
2022-08-10T09:05:21.967Z,86944.00
2022-08-10T09:06:21.960Z,89664.00
2022-08-10T09:07:59.356Z,83584.00
2022-08-10T09:08:21.955Z,96224.00
2022-08-10T09:09:21.924Z,90560.00
2022-08-10T09:10:21.914Z,77440.00
2022-08-10T09:11:21.907Z,102240.00
2022-08-10T09:12:21.897Z,91424.00
2022-08-10T09:13:21.884Z,78880.00
2022-08-10T09:14:25.539Z,96160.00
2022-08-10T09:15:39.488Z,88832.00
2022-08-10T09:16:22.882Z,85472.00
2022-08-10T09:17:21.875Z,98208.00
2022-08-10T09:18:21.838Z,95392.00
2022-08-10T09:19:35.327Z,97248.00
2022-08-10T09:20:21.821Z,95392.00
2022-08-10T09:21:21.811Z,87712.00
2022-08-10T09:22:21.795Z,91328.00
2022-08-10T09:23:21.788Z,99616.00
2022-08-10T09:24:21.774Z,89888.00
2022-08-10T09:25:21.796Z,86944.00
2022-08-10T09:26:21.755Z,98176.00
2022-08-10T09:27:21.788Z,88672.00
2022-08-10T09:28:21.777Z,89344.00
2022-08-10T09:29:21.721Z,87360.00
2022-08-10T09:30:28.360Z,86080.00
2022-08-10T09:31:23.135Z,93184.00
2022-08-10T09:36:14.870Z,85632.00
2022-08-10T09:36:20.167Z,78272.00
2022-08-10T09:36:21.269Z,94976.00
2022-08-10T09:36:21.418Z,104352.00
2022-08-10T09:36:33.371Z,83936.00
2022-08-10T09:37:21.661Z,93856.00
2022-08-10T09:38:21.636Z,98336.00
2022-08-10T09:40:12.284Z,84288.00
2022-08-10T09:41:02.256Z,90208.00
2022-08-10T09:41:21.648Z,97216.00
2022-08-10T09:42:21.596Z,97344.00
2022-08-10T09:43:25.418Z,97920.00
2022-08-10T09:44:21.574Z,91168.00
2022-08-10T09:45:21.563Z,98624.00
2022-08-10T09:46:21.602Z,96704.00
2022-08-10T09:47:21.569Z,82336.00
2022-08-10T09:48:22.580Z,96096.00
2022-08-10T09:49:25.870Z,92000.00
2022-08-10T09:50:22.586Z,86240.00
2022-08-10T09:51:44.905Z,89952.00
2022-08-10T09:52:22.532Z,86304.00
2022-08-10T09:53:21.489Z,92960.00
2022-08-10T09:54:21.483Z,82848.00
2022-08-10T09:55:21.470Z,97952.00
2022-08-10T09:56:26.766Z,95872.00
2022-08-10T09:57:44.401Z,84096.00
2022-08-10T09:58:22.475Z,99424.00
2022-08-10T09:59:59.316Z,100704.00
2022-08-10T10:00:21.425Z,84608.00
2022-08-10T10:01:23.592Z,90912.00
2022-08-10T10:02:22.425Z,96544.00
2022-08-10T10:03:25.817Z,85504.00
2022-08-10T10:04:21.383Z,86944.00
2022-08-10T10:05:21.377Z,91904.00
2022-08-10T10:06:21.362Z,95488.00
2022-08-10T10:07:21.351Z,80992.00
2022-08-10T10:08:21.359Z,65280.00
2022-08-10T10:09:26.842Z,87808.00
2022-08-10T10:10:21.322Z,94976.00
2022-08-10T10:11:21.309Z,83328.00
2022-08-10T10:12:21.299Z,80192.00
2022-08-10T10:13:52.886Z,90400.00
2022-08-10T10:14:22.354Z,100352.00
2022-08-10T10:15:24.681Z,93344.00
2022-08-10T10:16:21.262Z,90336.00
2022-08-10T10:17:21.247Z,94848.00
2022-08-10T10:18:21.240Z,84672.00
2022-08-10T10:19:21.287Z,82496.00
2022-08-10T10:20:21.247Z,89376.00
2022-08-10T10:21:52.299Z,82880.00
2022-08-10T10:22:21.205Z,76832.00
2022-08-10T10:23:21.193Z,82784.00
2022-08-10T10:24:22.831Z,91104.00
2022-08-10T10:25:21.530Z,87424.00
2022-08-10T10:26:21.160Z,86368.00
2022-08-10T10:27:21.151Z,98880.00
2022-08-10T10:28:21.145Z,94208.00
2022-08-10T10:29:56.308Z,76512.00
2022-08-10T10:30:22.173Z,77344.00
2022-08-10T10:31:21.111Z,80384.00
2022-08-10T10:32:21.105Z,76128.00
2022-08-10T10:33:21.093Z,77888.00
2022-08-10T10:34:21.088Z,77824.00
2022-08-10T10:35:21.077Z,83680.00
2022-08-10T10:36:21.066Z,97888.00
2022-08-10T10:37:21.052Z,95488.00
2022-08-10T10:38:21.047Z,91328.00
2022-08-10T10:39:24.062Z,86976.00
2022-08-10T10:40:21.025Z,89024.00
2022-08-10T10:41:21.019Z,89184.00
2022-08-10T10:42:44.182Z,90752.00
2022-08-10T10:43:22.019Z,85664.00
2022-08-10T10:44:20.989Z,85600.00
2022-08-10T10:45:20.978Z,94016.00
2022-08-10T10:46:23.193Z,89632.00
2022-08-10T10:47:20.958Z,96096.00
2022-08-10T10:48:24.238Z,92128.00
2022-08-10T10:49:20.938Z,86560.00
2022-08-10T10:50:20.933Z,94048.00
2022-08-10T10:51:20.918Z,93632.00
2022-08-10T10:52:20.914Z,81248.00
2022-08-10T10:53:20.997Z,87424.00
2022-08-10T10:54:20.897Z,93504.00
2022-08-10T10:55:20.880Z,84064.00
2022-08-10T10:56:20.873Z,81920.00
2022-08-10T10:57:20.859Z,91968.00
2022-08-10T10:58:24.214Z,91456.00
2022-08-10T10:59:53.891Z,87936.00
2022-08-10T11:00:21.862Z,101792.00
2022-08-10T11:01:20.874Z,93088.00
2022-08-10T11:02:20.819Z,84768.00
2022-08-10T11:03:20.809Z,91776.00
2022-08-10T11:04:20.877Z,84512.00
2022-08-10T11:05:20.793Z,84960.00
2022-08-10T11:06:20.785Z,89632.00
2022-08-10T11:07:21.967Z,69056.00
2022-08-10T11:08:20.765Z,76352.00
2022-08-10T11:10:07.960Z,100576.00
2022-08-10T11:10:32.870Z,87648.00
2022-08-10T11:12:02.007Z,72864.00
2022-08-10T11:12:26.127Z,94528.00
2022-08-10T11:14:26.589Z,99328.00
2022-08-10T11:14:28.536Z,96640.00
2022-08-10T11:15:20.705Z,99264.00
2022-08-10T11:16:20.689Z,93344.00
2022-08-10T11:17:20.677Z,80160.00
2022-08-10T11:18:20.673Z,87040.00
2022-08-10T11:19:20.659Z,95392.00
2022-08-10T11:20:20.651Z,84960.00
2022-08-10T11:21:20.643Z,89376.00
2022-08-10T11:22:20.632Z,94752.00
2022-08-10T11:23:20.621Z,94272.00
2022-08-10T11:24:48.836Z,85440.00
2022-08-10T11:25:20.719Z,89312.00
2022-08-10T11:26:20.614Z,92512.00
2022-08-10T11:27:22.009Z,89952.00
2022-08-10T11:28:20.578Z,84448.00
2022-08-10T11:29:20.564Z,93248.00
2022-08-10T11:30:20.710Z,93536.00
2022-08-10T11:31:20.543Z,85984.00
2022-08-10T11:32:21.347Z,85760.00
2022-08-10T11:33:30.581Z,88544.00
2022-08-10T11:34:47.075Z,97056.00
2022-08-10T11:35:20.521Z,88800.00
2022-08-10T11:36:20.545Z,83200.00
2022-08-10T11:37:20.483Z,79008.00
2022-08-10T11:38:31.230Z,85568.00
2022-08-10T11:39:21.542Z,86400.00
2022-08-10T11:40:20.458Z,79808.00
2022-08-10T11:42:09.752Z,89376.00
2022-08-10T11:42:31.663Z,98144.00
2022-08-10T11:43:21.445Z,88768.00
2022-08-10T11:44:20.427Z,81056.00
2022-08-10T11:45:20.407Z,99776.00
2022-08-10T11:46:28.463Z,97504.00
2022-08-10T11:47:21.419Z,94144.00
2022-08-10T11:48:54.227Z,89664.00
2022-08-10T11:49:21.394Z,82976.00
2022-08-10T11:50:20.362Z,84448.00
2022-08-10T11:51:20.349Z,98880.00
2022-08-10T11:52:20.342Z,96608.00
2022-08-10T11:53:20.342Z,77184.00
2022-08-10T11:54:20.327Z,96288.00
2022-08-10T11:55:20.347Z,102400.00
2022-08-10T11:56:20.369Z,86496.00
2022-08-10T11:57:21.248Z,80576.00
2022-08-10T11:58:20.285Z,80160.00
2022-08-10T11:59:20.273Z,92640.00
2022-08-10T12:00:20.269Z,87424.00
2022-08-10T12:01:20.253Z,96224.00
2022-08-10T12:02:20.327Z,100032.00
2022-08-10T12:03:20.232Z,84672.00
2022-08-10T12:04:20.228Z,78016.00
2022-08-10T12:05:20.216Z,91712.00
2022-08-10T12:06:39.328Z,104608.00
2022-08-10T12:09:24.025Z,75616.00
2022-08-10T12:10:02.098Z,86368.00
2022-08-10T12:10:09.364Z,103488.00
2022-08-10T12:10:20.168Z,80960.00
2022-08-10T12:11:24.534Z,79360.00
2022-08-10T12:12:20.150Z,86048.00
2022-08-10T12:13:20.141Z,84224.00
2022-08-10T12:14:22.173Z,86784.00